KMAI

Marianna Municipal Airport

Marianna, Florida, USA
METAR KMAI 161353Z AUTO 05009KT 10SM FEW120 05/M02 A3032 RMK AO2 SLP265 T00501017
Observed Flight Rules
Dec-16 @ 13:53 UTC (55 minutes ago) Visual Flight Rules
Wind Visibility Clouds
50° at 9 knots 10 miles
  • Few at 12,000' AGL
Temperatures Readings
Current 5°C / 41°F
Dewpoint -2°C / 28°F
Humidity 61%
Altimeter 30.32" Hg
Pressure 1026.5 hPa
Elevation 32
METAR KMAI 161353Z AUTO 05009KT 10SM FEW120 05/M02 A3032 RMK AO2 SLP265 T00501017
Observed Flight Rules
Dec-16 @ 13:53 UTC
(55 minutes ago)
VFR
Wind Visibility
50° at 9 knots 10 miles
Clouds
  • Few at 12,000' AGL
Temperature Dewpoint
5°C / 41°F -2°C / 28°F
Humidity Altimeter Pressure
61% 30.32" Hg 1026.5 hPa